sensor_id;sensor_type;location;lat;lon;timestamp;temperature;humidity
16301;DHT22;8258;51.020;4.248;2022-08-06T00:00:20;12.50;99.90
16301;DHT22;8258;51.020;4.248;2022-08-06T00:02:47;12.60;99.90
16301;DHT22;8258;51.020;4.248;2022-08-06T00:05:14;12.70;99.90
16301;DHT22;8258;51.020;4.248;2022-08-06T00:07:42;12.60;99.90
16301;DHT22;8258;51.020;4.248;2022-08-06T00:10:09;12.60;99.90
16301;DHT22;8258;51.020;4.248;2022-08-06T00:12:36;12.60;99.90
16301;DHT22;8258;51.020;4.248;2022-08-06T00:15:05;12.50;99.90
16301;DHT22;8258;51.020;4.248;2022-08-06T00:17:32;12.40;99.90
16301;DHT22;8258;51.020;4.248;2022-08-06T00:19:59;12.20;99.90
16301;DHT22;8258;51.020;4.248;2022-08-06T00:22:27;12.00;99.90
16301;DHT22;8258;51.020;4.248;2022-08-06T00:24:56;11.90;99.90
16301;DHT22;8258;51.020;4.248;2022-08-06T00:27:23;12.00;99.90
16301;DHT22;8258;51.020;4.248;2022-08-06T00:29:50;12.00;99.90
16301;DHT22;8258;51.020;4.248;2022-08-06T00:32:16;12.00;99.90
16301;DHT22;8258;51.020;4.248;2022-08-06T00:34:43;11.80;99.90
16301;DHT22;8258;51.020;4.248;2022-08-06T00:37:10;11.80;99.90
16301;DHT22;8258;51.020;4.248;2022-08-06T00:39:37;11.70;99.90
16301;DHT22;8258;51.020;4.248;2022-08-06T00:42:06;11.70;99.90
16301;DHT22;8258;51.020;4.248;2022-08-06T00:44:33;11.60;99.90
16301;DHT22;8258;51.020;4.248;2022-08-06T00:46:59;11.60;99.90
16301;DHT22;8258;51.020;4.248;2022-08-06T00:49:27;11.50;99.90
16301;DHT22;8258;51.020;4.248;2022-08-06T00:51:54;11.60;99.90
16301;DHT22;8258;51.020;4.248;2022-08-06T00:54:21;11.60;99.90
16301;DHT22;8258;51.020;4.248;2022-08-06T00:56:48;11.60;99.90
16301;DHT22;8258;51.020;4.248;2022-08-06T00:59:16;11.60;99.90
16301;DHT22;8258;51.020;4.248;2022-08-06T01:01:43;11.50;99.90
16301;DHT22;8258;51.020;4.248;2022-08-06T01:04:10;11.60;99.90
16301;DHT22;8258;51.020;4.248;2022-08-06T01:06:37;11.60;99.90
16301;DHT22;8258;51.020;4.248;2022-08-06T01:09:05;11.50;99.90
16301;DHT22;8258;51.020;4.248;2022-08-06T01:11:32;11.40;99.90
16301;DHT22;8258;51.020;4.248;2022-08-06T01:13:59;11.40;99.90
16301;DHT22;8258;51.020;4.248;2022-08-06T01:16:34;11.50;99.90
16301;DHT22;8258;51.020;4.248;2022-08-06T01:19:18;11.50;99.90
16301;DHT22;8258;51.020;4.248;2022-08-06T01:21:56;11.40;99.90
16301;DHT22;8258;51.020;4.248;2022-08-06T01:25:03;11.30;99.90
16301;DHT22;8258;51.020;4.248;2022-08-06T01:27:46;11.30;99.90
16301;DHT22;8258;51.020;4.248;2022-08-06T01:30:18;11.40;99.90
16301;DHT22;8258;51.020;4.248;2022-08-06T01:32:48;11.50;99.90
16301;DHT22;8258;51.020;4.248;2022-08-06T01:35:21;11.50;99.90
16301;DHT22;8258;51.020;4.248;2022-08-06T01:37:57;11.50;99.90
16301;DHT22;8258;51.020;4.248;2022-08-06T01:40:28;11.50;99.90
16301;DHT22;8258;51.020;4.248;2022-08-06T01:42:58;11.60;99.90
16301;DHT22;8258;51.020;4.248;2022-08-06T01:45:28;11.60;99.90
16301;DHT22;8258;51.020;4.248;2022-08-06T01:48:01;11.50;99.90
16301;DHT22;8258;51.020;4.248;2022-08-06T01:50:31;11.60;99.90
16301;DHT22;8258;51.020;4.248;2022-08-06T01:53:01;11.60;99.90
16301;DHT22;8258;51.020;4.248;2022-08-06T01:55:33;11.50;99.90
16301;DHT22;8258;51.020;4.248;2022-08-06T01:58:04;11.40;99.90
16301;DHT22;8258;51.020;4.248;2022-08-06T02:00:35;11.40;99.90
16301;DHT22;8258;51.020;4.248;2022-08-06T02:03:19;11.40;99.90
16301;DHT22;8258;51.020;4.248;2022-08-06T02:05:49;11.40;99.90
16301;DHT22;8258;51.020;4.248;2022-08-06T02:08:20;11.30;99.90
16301;DHT22;8258;51.020;4.248;2022-08-06T02:10:48;11.30;99.90
16301;DHT22;8258;51.020;4.248;2022-08-06T02:13:20;11.10;99.90
16301;DHT22;8258;51.020;4.248;2022-08-06T02:15:48;11.00;99.90
16301;DHT22;8258;51.020;4.248;2022-08-06T02:18:17;11.00;99.90
16301;DHT22;8258;51.020;4.248;2022-08-06T02:20:48;11.10;99.90
16301;DHT22;8258;51.020;4.248;2022-08-06T02:23:18;11.00;99.90
16301;DHT22;8258;51.020;4.248;2022-08-06T02:25:47;10.90;99.90
16301;DHT22;8258;51.020;4.248;2022-08-06T02:28:18;11.00;99.90
16301;DHT22;8258;51.020;4.248;2022-08-06T02:30:47;11.10;99.90
16301;DHT22;8258;51.020;4.248;2022-08-06T02:33:17;11.00;99.90
16301;DHT22;8258;51.020;4.248;2022-08-06T02:35:48;10.90;99.90
16301;DHT22;8258;51.020;4.248;2022-08-06T02:38:20;10.80;99.90
16301;DHT22;8258;51.020;4.248;2022-08-06T02:40:53;10.80;99.90
16301;DHT22;8258;51.020;4.248;2022-08-06T02:43:29;11.00;99.90
16301;DHT22;8258;51.020;4.248;2022-08-06T02:46:01;11.10;99.90
16301;DHT22;8258;51.020;4.248;2022-08-06T02:48:33;10.90;99.90
16301;DHT22;8258;51.020;4.248;2022-08-06T02:51:08;10.80;99.90
16301;DHT22;8258;51.020;4.248;2022-08-06T02:53:42;10.70;99.90
16301;DHT22;8258;51.020;4.248;2022-08-06T02:56:11;10.60;99.90
16301;DHT22;8258;51.020;4.248;2022-08-06T02:58:43;10.60;99.90
16301;DHT22;8258;51.020;4.248;2022-08-06T03:01:14;10.50;99.90
16301;DHT22;8258;51.020;4.248;2022-08-06T03:03:43;10.50;99.90
16301;DHT22;8258;51.020;4.248;2022-08-06T03:06:12;10.50;99.90
16301;DHT22;8258;51.020;4.248;2022-08-06T03:08:41;10.50;99.90
16301;DHT22;8258;51.020;4.248;2022-08-06T03:11:10;10.60;99.90
16301;DHT22;8258;51.020;4.248;2022-08-06T03:13:38;10.40;99.90
16301;DHT22;8258;51.020;4.248;2022-08-06T03:16:07;10.40;99.90
16301;DHT22;8258;51.020;4.248;2022-08-06T03:18:36;10.40;99.90
16301;DHT22;8258;51.020;4.248;2022-08-06T03:21:03;10.50;99.90
16301;DHT22;8258;51.020;4.248;2022-08-06T03:23:32;10.50;99.90
16301;DHT22;8258;51.020;4.248;2022-08-06T03:26:00;10.40;99.90
16301;DHT22;8258;51.020;4.248;2022-08-06T03:28:28;10.40;99.90
16301;DHT22;8258;51.020;4.248;2022-08-06T03:30:57;10.40;99.90
16301;DHT22;8258;51.020;4.248;2022-08-06T03:33:25;10.50;99.90
16301;DHT22;8258;51.020;4.248;2022-08-06T03:35:53;10.60;99.90
16301;DHT22;8258;51.020;4.248;2022-08-06T03:38:21;10.50;99.90
16301;DHT22;8258;51.020;4.248;2022-08-06T03:40:49;10.60;99.90
16301;DHT22;8258;51.020;4.248;2022-08-06T03:43:17;10.80;99.90
16301;DHT22;8258;51.020;4.248;2022-08-06T03:45:48;10.80;99.90
16301;DHT22;8258;51.020;4.248;2022-08-06T03:48:20;10.80;99.90
16301;DHT22;8258;51.020;4.248;2022-08-06T03:50:53;10.60;99.90
16301;DHT22;8258;51.020;4.248;2022-08-06T03:53:22;10.50;99.90
16301;DHT22;8258;51.020;4.248;2022-08-06T03:55:52;10.50;99.90
16301;DHT22;8258;51.020;4.248;2022-08-06T03:58:21;10.40;99.90
16301;DHT22;8258;51.020;4.248;2022-08-06T04:00:51;10.50;99.90
16301;DHT22;8258;51.020;4.248;2022-08-06T04:03:20;10.40;99.90
16301;DHT22;8258;51.020;4.248;2022-08-06T04:05:48;10.30;99.90
16301;DHT22;8258;51.020;4.248;2022-08-06T04:08:17;10.20;99.90
16301;DHT22;8258;51.020;4.248;2022-08-06T04:10:47;10.20;99.90
16301;DHT22;8258;51.020;4.248;2022-08-06T04:13:16;10.20;99.90
16301;DHT22;8258;51.020;4.248;2022-08-06T04:15:44;10.20;99.90
16301;DHT22;8258;51.020;4.248;2022-08-06T04:18:15;10.30;99.90
16301;DHT22;8258;51.020;4.248;2022-08-06T04:20:45;10.30;99.90
16301;DHT22;8258;51.020;4.248;2022-08-06T04:23:12;10.30;99.90
16301;DHT22;8258;51.020;4.248;2022-08-06T04:25:44;10.30;99.90
16301;DHT22;8258;51.020;4.248;2022-08-06T04:28:12;10.40;99.90
16301;DHT22;8258;51.020;4.248;2022-08-06T04:30:40;10.50;99.90
16301;DHT22;8258;51.020;4.248;2022-08-06T04:33:11;10.60;99.90
16301;DHT22;8258;51.020;4.248;2022-08-06T04:35:39;10.80;99.90
16301;DHT22;8258;51.020;4.248;2022-08-06T04:38:07;10.90;99.90
16301;DHT22;8258;51.020;4.248;2022-08-06T04:40:35;10.90;99.90
16301;DHT22;8258;51.020;4.248;2022-08-06T04:43:04;10.80;99.90
16301;DHT22;8258;51.020;4.248;2022-08-06T04:45:32;10.80;99.90
16301;DHT22;8258;51.020;4.248;2022-08-06T04:48:00;10.60;99.90
16301;DHT22;8258;51.020;4.248;2022-08-06T04:50:30;10.60;99.90
16301;DHT22;8258;51.020;4.248;2022-08-06T04:53:05;10.80;99.90
16301;DHT22;8258;51.020;4.248;2022-08-06T04:55:32;10.90;99.90
16301;DHT22;8258;51.020;4.248;2022-08-06T04:57:59;11.00;99.90
16301;DHT22;8258;51.020;4.248;2022-08-06T05:00:27;11.20;99.90
16301;DHT22;8258;51.020;4.248;2022-08-06T05:02:54;11.30;99.90
16301;DHT22;8258;51.020;4.248;2022-08-06T05:05:21;11.30;99.90
16301;DHT22;8258;51.020;4.248;2022-08-06T05:07:51;11.30;99.90
16301;DHT22;8258;51.020;4.248;2022-08-06T05:10:19;11.50;99.90
16301;DHT22;8258;51.020;4.248;2022-08-06T05:12:53;11.40;99.90
16301;DHT22;8258;51.020;4.248;2022-08-06T05:15:29;11.50;99.90
16301;DHT22;8258;51.020;4.248;2022-08-06T05:18:02;11.50;99.90
16301;DHT22;8258;51.020;4.248;2022-08-06T05:20:33;11.60;99.90
16301;DHT22;8258;51.020;4.248;2022-08-06T05:23:04;11.60;99.90
16301;DHT22;8258;51.020;4.248;2022-08-06T05:25:32;11.60;99.90
16301;DHT22;8258;51.020;4.248;2022-08-06T05:28:02;11.60;99.90
16301;DHT22;8258;51.020;4.248;2022-08-06T05:30:30;11.70;99.90
16301;DHT22;8258;51.020;4.248;2022-08-06T05:32:56;11.80;99.90
16301;DHT22;8258;51.020;4.248;2022-08-06T05:35:25;11.80;99.90
16301;DHT22;8258;51.020;4.248;2022-08-06T05:37:52;11.90;99.90
16301;DHT22;8258;51.020;4.248;2022-08-06T05:40:19;12.00;99.90
16301;DHT22;8258;51.020;4.248;2022-08-06T05:42:46;12.10;99.90
16301;DHT22;8258;51.020;4.248;2022-08-06T05:45:16;12.30;99.90
16301;DHT22;8258;51.020;4.248;2022-08-06T05:47:46;12.40;99.90
16301;DHT22;8258;51.020;4.248;2022-08-06T05:50:17;12.40;99.90
16301;DHT22;8258;51.020;4.248;2022-08-06T05:52:50;12.40;99.90
16301;DHT22;8258;51.020;4.248;2022-08-06T05:55:23;12.60;99.90
16301;DHT22;8258;51.020;4.248;2022-08-06T05:57:54;12.90;99.90
16301;DHT22;8258;51.020;4.248;2022-08-06T06:00:25;13.10;99.90
16301;DHT22;8258;51.020;4.248;2022-08-06T06:02:55;13.30;99.90
16301;DHT22;8258;51.020;4.248;2022-08-06T06:05:24;13.40;99.90
16301;DHT22;8258;51.020;4.248;2022-08-06T06:07:53;13.50;99.90
16301;DHT22;8258;51.020;4.248;2022-08-06T06:10:22;13.60;99.90
16301;DHT22;8258;51.020;4.248;2022-08-06T06:12:50;13.70;99.90
16301;DHT22;8258;51.020;4.248;2022-08-06T06:15:18;13.80;99.90
16301;DHT22;8258;51.020;4.248;2022-08-06T06:17:57;14.00;99.90
16301;DHT22;8258;51.020;4.248;2022-08-06T06:20:32;14.20;99.90
16301;DHT22;8258;51.020;4.248;2022-08-06T06:23:08;14.50;99.90
16301;DHT22;8258;51.020;4.248;2022-08-06T06:25:42;14.70;99.90
16301;DHT22;8258;51.020;4.248;2022-08-06T06:28:16;14.80;99.90
16301;DHT22;8258;51.020;4.248;2022-08-06T06:30:52;14.90;99.90
16301;DHT22;8258;51.020;4.248;2022-08-06T06:33:24;15.10;99.90
16301;DHT22;8258;51.020;4.248;2022-08-06T06:35:57;15.30;99.90
16301;DHT22;8258;51.020;4.248;2022-08-06T06:38:34;15.50;99.90
16301;DHT22;8258;51.020;4.248;2022-08-06T06:41:09;15.60;99.90
16301;DHT22;8258;51.020;4.248;2022-08-06T06:43:43;15.80;99.90
16301;DHT22;8258;51.020;4.248;2022-08-06T06:46:18;16.10;99.90
16301;DHT22;8258;51.020;4.248;2022-08-06T06:48:48;16.40;99.90
16301;DHT22;8258;51.020;4.248;2022-08-06T06:51:20;16.60;99.90
16301;DHT22;8258;51.020;4.248;2022-08-06T06:53:51;16.80;99.90
16301;DHT22;8258;51.020;4.248;2022-08-06T06:56:28;16.70;99.90
16301;DHT22;8258;51.020;4.248;2022-08-06T06:58:59;17.00;99.90
16301;DHT22;8258;51.020;4.248;2022-08-06T07:01:29;17.30;99.90
16301;DHT22;8258;51.020;4.248;2022-08-06T07:04:00;17.90;99.90
16301;DHT22;8258;51.020;4.248;2022-08-06T07:06:29;18.40;99.90
16301;DHT22;8258;51.020;4.248;2022-08-06T07:08:59;18.70;99.90
16301;DHT22;8258;51.020;4.248;2022-08-06T07:11:27;19.40;99.90
16301;DHT22;8258;51.020;4.248;2022-08-06T07:13:57;20.40;99.90
16301;DHT22;8258;51.020;4.248;2022-08-06T07:16:26;20.90;99.90
16301;DHT22;8258;51.020;4.248;2022-08-06T07:18:54;21.80;99.90
16301;DHT22;8258;51.020;4.248;2022-08-06T07:21:21;22.30;99.90
16301;DHT22;8258;51.020;4.248;2022-08-06T07:23:50;22.80;99.90
16301;DHT22;8258;51.020;4.248;2022-08-06T07:26:21;23.00;99.90
16301;DHT22;8258;51.020;4.248;2022-08-06T07:28:51;23.40;99.90
16301;DHT22;8258;51.020;4.248;2022-08-06T07:31:18;23.70;99.90
16301;DHT22;8258;51.020;4.248;2022-08-06T07:33:49;23.80;99.90
16301;DHT22;8258;51.020;4.248;2022-08-06T07:36:19;24.00;99.90
16301;DHT22;8258;51.020;4.248;2022-08-06T07:38:48;24.20;99.90
16301;DHT22;8258;51.020;4.248;2022-08-06T07:41:16;24.10;99.90
16301;DHT22;8258;51.020;4.248;2022-08-06T07:43:48;24.10;99.90
16301;DHT22;8258;51.020;4.248;2022-08-06T07:46:20;24.00;99.90
16301;DHT22;8258;51.020;4.248;2022-08-06T07:48:52;24.30;99.90
16301;DHT22;8258;51.020;4.248;2022-08-06T07:51:21;24.40;99.90
16301;DHT22;8258;51.020;4.248;2022-08-06T07:53:49;24.10;99.90
16301;DHT22;8258;51.020;4.248;2022-08-06T07:56:18;24.40;99.70
16301;DHT22;8258;51.020;4.248;2022-08-06T07:58:47;25.10;99.90
16301;DHT22;8258;51.020;4.248;2022-08-06T08:01:14;25.50;98.70
16301;DHT22;8258;51.020;4.248;2022-08-06T08:03:42;25.80;98.70
16301;DHT22;8258;51.020;4.248;2022-08-06T08:06:36;25.90;98.00
16301;DHT22;8258;51.020;4.248;2022-08-06T08:09:07;25.90;97.30
16301;DHT22;8258;51.020;4.248;2022-08-06T08:11:35;25.40;97.60
16301;DHT22;8258;51.020;4.248;2022-08-06T08:14:08;24.60;98.50
16301;DHT22;8258;51.020;4.248;2022-08-06T08:16:36;23.90;99.60
16301;DHT22;8258;51.020;4.248;2022-08-06T08:19:03;24.10;99.90
16301;DHT22;8258;51.020;4.248;2022-08-06T08:21:30;25.00;98.40
16301;DHT22;8258;51.020;4.248;2022-08-06T08:23:57;26.20;96.80
16301;DHT22;8258;51.020;4.248;2022-08-06T08:26:24;25.70;96.70
16301;DHT22;8258;51.020;4.248;2022-08-06T08:28:51;25.80;97.00
16301;DHT22;8258;51.020;4.248;2022-08-06T08:31:19;26.00;96.60
16301;DHT22;8258;51.020;4.248;2022-08-06T08:33:46;26.10;96.40
16301;DHT22;8258;51.020;4.248;2022-08-06T08:36:13;27.20;94.60
16301;DHT22;8258;51.020;4.248;2022-08-06T08:38:40;27.60;93.50
16301;DHT22;8258;51.020;4.248;2022-08-06T08:41:15;28.40;92.30
16301;DHT22;8258;51.020;4.248;2022-08-06T08:43:48;27.70;92.20
16301;DHT22;8258;51.020;4.248;2022-08-06T08:46:18;28.50;91.60
16301;DHT22;8258;51.020;4.248;2022-08-06T08:48:46;28.40;90.10
16301;DHT22;8258;51.020;4.248;2022-08-06T08:51:14;27.30;91.60
16301;DHT22;8258;51.020;4.248;2022-08-06T08:53:44;27.40;91.80
16301;DHT22;8258;51.020;4.248;2022-08-06T08:56:13;27.40;91.40
16301;DHT22;8258;51.020;4.248;2022-08-06T08:58:41;27.10;91.90
16301;DHT22;8258;51.020;4.248;2022-08-06T09:01:09;27.30;91.30
16301;DHT22;8258;51.020;4.248;2022-08-06T09:03:39;26.70;91.60
16301;DHT22;8258;51.020;4.248;2022-08-06T09:06:07;26.60;91.80
16301;DHT22;8258;51.020;4.248;2022-08-06T09:08:34;25.90;92.30
16301;DHT22;8258;51.020;4.248;2022-08-06T09:11:03;26.00;92.40
16301;DHT22;8258;51.020;4.248;2022-08-06T09:13:31;26.80;91.80
16301;DHT22;8258;51.020;4.248;2022-08-06T09:15:58;26.90;91.30
16301;DHT22;8258;51.020;4.248;2022-08-06T09:18:25;27.50;90.70
16301;DHT22;8258;51.020;4.248;2022-08-06T09:20:54;28.20;89.20
16301;DHT22;8258;51.020;4.248;2022-08-06T09:23:21;28.80;87.70
16301;DHT22;8258;51.020;4.248;2022-08-06T09:25:49;28.70;87.30
16301;DHT22;8258;51.020;4.248;2022-08-06T09:28:35;28.00;86.10
16301;DHT22;8258;51.020;4.248;2022-08-06T09:31:04;26.80;89.10
16301;DHT22;8258;51.020;4.248;2022-08-06T09:33:34;26.90;89.50
16301;DHT22;8258;51.020;4.248;2022-08-06T09:36:05;28.10;87.50
16301;DHT22;8258;51.020;4.248;2022-08-06T09:38:33;29.20;83.10
16301;DHT22;8258;51.020;4.248;2022-08-06T09:41:11;29.30;81.90
16301;DHT22;8258;51.020;4.248;2022-08-06T09:43:39;29.10;82.10
16301;DHT22;8258;51.020;4.248;2022-08-06T09:46:06;29.90;78.00
16301;DHT22;8258;51.020;4.248;2022-08-06T09:48:34;28.60;80.50
16301;DHT22;8258;51.020;4.248;2022-08-06T09:51:03;29.40;78.90
16301;DHT22;8258;51.020;4.248;2022-08-06T09:53:29;30.70;75.70
16301;DHT22;8258;51.020;4.248;2022-08-06T09:55:57;31.40;71.40
16301;DHT22;8258;51.020;4.248;2022-08-06T09:58:31;31.50;71.50
16301;DHT22;8258;51.020;4.248;2022-08-06T10:01:14;31.30;71.40
16301;DHT22;8258;51.020;4.248;2022-08-06T10:03:41;30.00;71.30
16301;DHT22;8258;51.020;4.248;2022-08-06T10:06:10;30.00;73.50
16301;DHT22;8258;51.020;4.248;2022-08-06T10:08:38;29.40;74.20
16301;DHT22;8258;51.020;4.248;2022-08-06T10:11:06;28.80;76.70
16301;DHT22;8258;51.020;4.248;2022-08-06T10:13:34;29.00;77.30
16301;DHT22;8258;51.020;4.248;2022-08-06T10:16:16;29.30;77.10
16301;DHT22;8258;51.020;4.248;2022-08-06T10:18:45;30.00;74.60
16301;DHT22;8258;51.020;4.248;2022-08-06T10:21:15;30.00;74.30
16301;DHT22;8258;51.020;4.248;2022-08-06T10:23:46;30.60;72.50
16301;DHT22;8258;51.020;4.248;2022-08-06T10:26:16;30.70;71.30
16301;DHT22;8258;51.020;4.248;2022-08-06T10:28:46;30.80;69.00
16301;DHT22;8258;51.020;4.248;2022-08-06T10:31:15;30.70;65.80
16301;DHT22;8258;51.020;4.248;2022-08-06T10:33:48;30.20;65.50
16301;DHT22;8258;51.020;4.248;2022-08-06T10:36:20;30.20;66.20
16301;DHT22;8258;51.020;4.248;2022-08-06T10:38:50;31.10;64.30
16301;DHT22;8258;51.020;4.248;2022-08-06T10:41:17;31.00;63.90
16301;DHT22;8258;51.020;4.248;2022-08-06T10:43:45;30.90;64.70
16301;DHT22;8258;51.020;4.248;2022-08-06T10:46:13;31.30;64.70
16301;DHT22;8258;51.020;4.248;2022-08-06T10:48:43;31.70;62.30
16301;DHT22;8258;51.020;4.248;2022-08-06T10:51:11;32.00;63.40
16301;DHT22;8258;51.020;4.248;2022-08-06T10:53:41;31.60;62.20
16301;DHT22;8258;51.020;4.248;2022-08-06T10:56:09;31.70;62.10
16301;DHT22;8258;51.020;4.248;2022-08-06T10:58:37;31.70;61.20
16301;DHT22;8258;51.020;4.248;2022-08-06T11:01:07;31.60;61.90
16301;DHT22;8258;51.020;4.248;2022-08-06T11:03:46;31.00;60.80
16301;DHT22;8258;51.020;4.248;2022-08-06T11:09:42;31.40;60.50
16301;DHT22;8258;51.020;4.248;2022-08-06T11:12:23;29.90;62.30
16301;DHT22;8258;51.020;4.248;2022-08-06T11:14:52;28.80;64.90
16301;DHT22;8258;51.020;4.248;2022-08-06T11:17:19;29.10;66.20
16301;DHT22;8258;51.020;4.248;2022-08-06T11:19:47;30.60;64.20
16301;DHT22;8258;51.020;4.248;2022-08-06T11:22:32;31.70;59.30
16301;DHT22;8258;51.020;4.248;2022-08-06T11:25:02;32.30;59.50
16301;DHT22;8258;51.020;4.248;2022-08-06T11:27:49;33.20;56.00
16301;DHT22;8258;51.020;4.248;2022-08-06T11:30:17;31.40;56.80
16301;DHT22;8258;51.020;4.248;2022-08-06T11:32:46;30.70;59.20
16301;DHT22;8258;51.020;4.248;2022-08-06T11:35:39;31.20;58.20
16301;DHT22;8258;51.020;4.248;2022-08-06T11:38:09;30.40;57.60
16301;DHT22;8258;51.020;4.248;2022-08-06T11:40:58;29.20;58.70
16301;DHT22;8258;51.020;4.248;2022-08-06T11:43:47;29.00;60.50
16301;DHT22;8258;51.020;4.248;2022-08-06T11:46:22;30.60;58.30
16301;DHT22;8258;51.020;4.248;2022-08-06T11:51:54;32.90;56.90
16301;DHT22;8258;51.020;4.248;2022-08-06T11:54:25;33.80;55.60
16301;DHT22;8258;51.020;4.248;2022-08-06T11:57:19;34.90;54.00
16301;DHT22;8258;51.020;4.248;2022-08-06T12:00:04;35.10;52.40
16301;DHT22;8258;51.020;4.248;2022-08-06T12:03:00;34.70;53.20
16301;DHT22;8258;51.020;4.248;2022-08-06T12:05:43;35.20;51.00
16301;DHT22;8258;51.020;4.248;2022-08-06T12:08:25;34.90;51.50
16301;DHT22;8258;51.020;4.248;2022-08-06T12:11:27;35.00;50.40
16301;DHT22;8258;51.020;4.248;2022-08-06T12:13:57;33.20;51.20
16301;DHT22;8258;51.020;4.248;2022-08-06T12:16:45;30.80;50.70
16301;DHT22;8258;51.020;4.248;2022-08-06T12:19:14;31.60;53.00
16301;DHT22;8258;51.020;4.248;2022-08-06T12:21:41;32.30;52.50
16301;DHT22;8258;51.020;4.248;2022-08-06T12:24:10;33.00;52.30
16301;DHT22;8258;51.020;4.248;2022-08-06T12:26:37;31.60;52.90
16301;DHT22;8258;51.020;4.248;2022-08-06T12:29:07;29.60;55.50
16301;DHT22;8258;51.020;4.248;2022-08-06T12:31:36;28.70;57.80
16301;DHT22;8258;51.020;4.248;2022-08-06T12:34:03;29.20;58.50
16301;DHT22;8258;51.020;4.248;2022-08-06T12:36:33;30.70;56.50
16301;DHT22;8258;51.020;4.248;2022-08-06T12:39:02;32.60;54.20
16301;DHT22;8258;51.020;4.248;2022-08-06T12:41:38;33.40;51.70
16301;DHT22;8258;51.020;4.248;2022-08-06T12:44:09;34.80;50.90
16301;DHT22;8258;51.020;4.248;2022-08-06T12:46:37;33.90;51.20
16301;DHT22;8258;51.020;4.248;2022-08-06T12:49:04;34.60;51.30
16301;DHT22;8258;51.020;4.248;2022-08-06T12:51:32;35.00;48.30
16301;DHT22;8258;51.020;4.248;2022-08-06T12:54:02;34.80;49.80
16301;DHT22;8258;51.020;4.248;2022-08-06T12:56:32;34.50;48.30
16301;DHT22;8258;51.020;4.248;2022-08-06T12:59:02;33.50;49.80
16301;DHT22;8258;51.020;4.248;2022-08-06T13:01:35;33.90;50.60
16301;DHT22;8258;51.020;4.248;2022-08-06T13:04:06;34.50;50.30
16301;DHT22;8258;51.020;4.248;2022-08-06T13:06:36;35.00;48.80
16301;DHT22;8258;51.020;4.248;2022-08-06T13:09:04;32.70;50.20
16301;DHT22;8258;51.020;4.248;2022-08-06T13:11:32;30.30;52.90
16301;DHT22;8258;51.020;4.248;2022-08-06T13:14:08;28.50;54.80
16301;DHT22;8258;51.020;4.248;2022-08-06T13:16:44;27.80;55.90
16301;DHT22;8258;51.020;4.248;2022-08-06T13:19:14;26.90;57.20
16301;DHT22;8258;51.020;4.248;2022-08-06T13:21:42;28.40;57.00
16301;DHT22;8258;51.020;4.248;2022-08-06T13:24:10;31.00;53.20
16301;DHT22;8258;51.020;4.248;2022-08-06T13:26:51;33.20;50.50
16301;DHT22;8258;51.020;4.248;2022-08-06T13:29:20;34.10;50.10
16301;DHT22;8258;51.020;4.248;2022-08-06T13:31:58;32.60;50.50
16301;DHT22;8258;51.020;4.248;2022-08-06T13:34:27;31.10;52.40
16301;DHT22;8258;51.020;4.248;2022-08-06T13:36:55;29.80;54.30
16301;DHT22;8258;51.020;4.248;2022-08-06T13:39:25;28.70;54.30
16301;DHT22;8258;51.020;4.248;2022-08-06T13:42:07;27.70;55.90
16301;DHT22;8258;51.020;4.248;2022-08-06T13:44:40;27.40;57.90
16301;DHT22;8258;51.020;4.248;2022-08-06T13:47:10;27.40;58.30
16301;DHT22;8258;51.020;4.248;2022-08-06T13:49:39;27.20;59.50
16301;DHT22;8258;51.020;4.248;2022-08-06T13:52:06;27.80;58.70
16301;DHT22;8258;51.020;4.248;2022-08-06T13:54:33;28.50;58.00
16301;DHT22;8258;51.020;4.248;2022-08-06T13:57:01;30.50;55.80
16301;DHT22;8258;51.020;4.248;2022-08-06T13:59:30;31.60;54.10
16301;DHT22;8258;51.020;4.248;2022-08-06T14:01:58;32.10;52.80
16301;DHT22;8258;51.020;4.248;2022-08-06T14:04:28;33.00;50.90
16301;DHT22;8258;51.020;4.248;2022-08-06T14:06:57;33.80;51.00
16301;DHT22;8258;51.020;4.248;2022-08-06T14:09:25;34.90;49.10
16301;DHT22;8258;51.020;4.248;2022-08-06T14:11:55;34.80;49.30
16301;DHT22;8258;51.020;4.248;2022-08-06T14:14:23;34.90;47.40
16301;DHT22;8258;51.020;4.248;2022-08-06T14:16:50;34.60;48.70
16301;DHT22;8258;51.020;4.248;2022-08-06T14:19:17;33.90;49.90
16301;DHT22;8258;51.020;4.248;2022-08-06T14:21:46;33.60;49.30
16301;DHT22;8258;51.020;4.248;2022-08-06T14:24:13;33.80;50.20
16301;DHT22;8258;51.020;4.248;2022-08-06T14:26:40;32.60;50.20
16301;DHT22;8258;51.020;4.248;2022-08-06T14:29:07;31.10;53.00
16301;DHT22;8258;51.020;4.248;2022-08-06T14:31:34;29.80;54.40
16301;DHT22;8258;51.020;4.248;2022-08-06T14:34:01;29.10;55.70
16301;DHT22;8258;51.020;4.248;2022-08-06T14:36:28;30.80;54.80
16301;DHT22;8258;51.020;4.248;2022-08-06T14:38:57;32.40;51.60
16301;DHT22;8258;51.020;4.248;2022-08-06T14:41:25;33.30;51.00
16301;DHT22;8258;51.020;4.248;2022-08-06T14:44:10;33.90;49.30
16301;DHT22;8258;51.020;4.248;2022-08-06T14:46:54;33.90;48.40
16301;DHT22;8258;51.020;4.248;2022-08-06T14:49:22;32.80;49.20
16301;DHT22;8258;51.020;4.248;2022-08-06T14:51:49;31.60;51.10
16301;DHT22;8258;51.020;4.248;2022-08-06T14:54:18;30.40;52.70
16301;DHT22;8258;51.020;4.248;2022-08-06T14:56:46;30.00;54.20
16301;DHT22;8258;51.020;4.248;2022-08-06T14:59:13;31.50;53.10
16301;DHT22;8258;51.020;4.248;2022-08-06T15:01:40;32.70;51.90
16301;DHT22;8258;51.020;4.248;2022-08-06T15:04:08;33.50;50.80
16301;DHT22;8258;51.020;4.248;2022-08-06T15:06:35;33.30;51.00
16301;DHT22;8258;51.020;4.248;2022-08-06T15:09:02;33.40;50.20
16301;DHT22;8258;51.020;4.248;2022-08-06T15:11:30;33.20;52.00
16301;DHT22;8258;51.020;4.248;2022-08-06T15:13:57;32.30;52.60
16301;DHT22;8258;51.020;4.248;2022-08-06T15:16:24;31.20;54.00
16301;DHT22;8258;51.020;4.248;2022-08-06T15:18:52;29.80;55.40
16301;DHT22;8258;51.020;4.248;2022-08-06T15:21:19;28.70;57.30
16301;DHT22;8258;51.020;4.248;2022-08-06T15:23:46;29.40;56.90
16301;DHT22;8258;51.020;4.248;2022-08-06T15:26:13;30.70;56.00
16301;DHT22;8258;51.020;4.248;2022-08-06T15:28:42;32.30;54.10
16301;DHT22;8258;51.020;4.248;2022-08-06T15:31:09;32.40;51.60
16301;DHT22;8258;51.020;4.248;2022-08-06T15:33:35;32.60;52.50
16301;DHT22;8258;51.020;4.248;2022-08-06T15:36:03;33.00;51.40
16301;DHT22;8258;51.020;4.248;2022-08-06T15:38:31;33.40;50.40
16301;DHT22;8258;51.020;4.248;2022-08-06T15:40:58;33.10;50.60
16301;DHT22;8258;51.020;4.248;2022-08-06T15:43:25;33.70;49.80
16301;DHT22;8258;51.020;4.248;2022-08-06T15:45:53;34.30;49.40
16301;DHT22;8258;51.020;4.248;2022-08-06T15:48:20;33.60;49.80
16301;DHT22;8258;51.020;4.248;2022-08-06T15:50:50;33.90;48.70
16301;DHT22;8258;51.020;4.248;2022-08-06T15:53:17;33.10;49.20
16301;DHT22;8258;51.020;4.248;2022-08-06T15:55:45;31.10;51.50
16301;DHT22;8258;51.020;4.248;2022-08-06T15:58:12;30.20;53.80
16301;DHT22;8258;51.020;4.248;2022-08-06T16:00:40;30.20;54.50
16301;DHT22;8258;51.020;4.248;2022-08-06T16:03:12;29.40;55.70
16301;DHT22;8258;51.020;4.248;2022-08-06T16:05:41;28.60;56.60
16301;DHT22;8258;51.020;4.248;2022-08-06T16:08:09;27.90;58.50
16301;DHT22;8258;51.020;4.248;2022-08-06T16:10:41;28.10;59.00